Time;durP1;ratioP1;P1;durP2;ratioP2;P2;SDS_P1;SDS_P2;PMS_P1;PMS_P2;Temp;Humidity;BMP_temperature;BMP_pressure;BME280_temperature;BME280_humidity;BME280_pressure;Samples;Min_cycle;Max_cycle;Signal;HPM_P1;HPM_P2
2022/08/16 00:03:34;;;;;;;;;;;22.10;99.90;;;;;;8379086;28;19924;-69
2022/08/16 00:07:39;;;;;;;;;;;22.00;99.90;;;;;;8402414;28;20294;-70
2022/08/16 00:11:42;;;;;;;;;;;22.00;99.90;;;;;;8409542;28;20367;-69
2022/08/16 00:15:46;;;;;;;;;;;21.90;99.90;;;;;;8395718;28;20014;-69
2022/08/16 00:19:53;;;;;;;;;;;21.80;99.90;;;;;;8412925;28;19920;-69
2022/08/16 00:23:55;;;;;;;;;;;21.80;99.90;;;;;;8397514;28;19920;-69
2022/08/16 00:27:57;;;;;;;;;;;21.70;99.90;;;;;;8369047;28;19927;-69
2022/08/16 00:32:02;;;;;;;;;;;21.70;99.90;;;;;;8393569;28;20388;-70
2022/08/16 00:36:07;;;;;;;;;;;21.60;99.90;;;;;;8394266;28;20315;-69
2022/08/16 00:40:09;;;;;;;;;;;21.50;99.90;;;;;;8386765;28;19943;-69
2022/08/16 00:44:30;;;;;;;;;;;21.50;99.90;;;;;;8393685;28;20454;-69
2022/08/16 00:48:33;;;;;;;;;;;21.40;99.90;;;;;;8404939;28;20284;-69
2022/08/16 00:52:46;;;;;;;;;;;21.40;99.90;;;;;;8404413;28;19966;-69
2022/08/16 00:56:52;;;;;;;;;;;21.30;99.90;;;;;;8400585;28;19985;-69
2022/08/16 01:00:59;;;;;;;;;;;21.30;99.90;;;;;;8402138;28;19920;-69
2022/08/16 01:05:01;;;;;;;;;;;21.20;99.90;;;;;;8379973;28;19950;-69
2022/08/16 01:09:12;;;;;;;;;;;21.20;99.90;;;;;;8409800;28;19929;-69
2022/08/16 01:13:17;;;;;;;;;;;21.10;99.90;;;;;;8400341;28;20296;-69
2022/08/16 01:17:19;;;;;;;;;;;21.10;99.90;;;;;;8379138;28;19947;-69
2022/08/16 01:21:27;;;;;;;;;;;21.10;99.90;;;;;;8405487;28;19920;-69
2022/08/16 01:25:35;;;;;;;;;;;21.00;99.90;;;;;;8404257;28;20014;-69
2022/08/16 01:29:40;;;;;;;;;;;20.90;99.90;;;;;;8392625;28;20316;-69
2022/08/16 01:33:59;;;;;;;;;;;20.90;99.90;;;;;;8389969;28;20314;-69
2022/08/16 01:38:15;;;;;;;;;;;20.90;99.90;;;;;;8388415;28;19924;-69
2022/08/16 01:42:20;;;;;;;;;;;20.80;99.90;;;;;;8403056;28;19924;-69
2022/08/16 01:46:29;;;;;;;;;;;20.70;99.90;;;;;;8395799;28;19932;-69
2022/08/16 01:50:41;;;;;;;;;;;20.70;99.90;;;;;;8375693;28;20016;-69
2022/08/16 01:55:03;;;;;;;;;;;20.60;99.90;;;;;;8396889;27;20019;-69
2022/08/16 01:59:06;;;;;;;;;;;20.60;99.90;;;;;;8388378;28;20291;-69
2022/08/16 02:03:08;;;;;;;;;;;20.50;99.90;;;;;;8383050;28;19943;-69
2022/08/16 02:07:14;;;;;;;;;;;20.50;99.90;;;;;;8378919;28;19924;-69
2022/08/16 02:11:16;;;;;;;;;;;20.40;99.90;;;;;;8384874;28;20367;-69
2022/08/16 02:15:20;;;;;;;;;;;20.40;99.90;;;;;;8383287;28;20355;-69
2022/08/16 02:19:27;;;;;;;;;;;20.40;99.90;;;;;;8366420;28;20045;-69
2022/08/16 02:23:49;;;;;;;;;;;20.30;99.90;;;;;;8380119;28;19920;-69
2022/08/16 02:27:52;;;;;;;;;;;20.30;99.90;;;;;;8385117;28;19986;-69
2022/08/16 02:31:54;;;;;;;;;;;20.30;99.90;;;;;;8383588;28;19935;-69
2022/08/16 02:36:05;;;;;;;;;;;20.30;99.90;;;;;;8387509;28;19924;-69
2022/08/16 02:40:07;;;;;;;;;;;20.20;99.90;;;;;;8384792;28;19920;-69
2022/08/16 02:44:10;;;;;;;;;;;20.10;99.90;;;;;;8386057;28;19935;-69
2022/08/16 02:48:14;;;;;;;;;;;20.10;99.90;;;;;;8385204;28;20217;-69
2022/08/16 02:52:29;;;;;;;;;;;20.10;99.90;;;;;;8397559;28;19921;-69
2022/08/16 02:56:31;;;;;;;;;;;20.00;99.90;;;;;;8401576;27;20380;-69
2022/08/16 03:00:33;;;;;;;;;;;20.00;99.90;;;;;;8401439;28;20275;-69
2022/08/16 03:04:36;;;;;;;;;;;19.90;99.90;;;;;;8386368;28;19920;-69
2022/08/16 03:08:51;;;;;;;;;;;19.90;99.90;;;;;;8380624;28;19931;-69
2022/08/16 03:12:53;;;;;;;;;;;19.80;99.90;;;;;;8410856;28;19935;-69
2022/08/16 03:16:57;;;;;;;;;;;19.80;99.90;;;;;;8406773;28;19921;-69
2022/08/16 03:21:00;;;;;;;;;;;19.80;99.90;;;;;;8401684;28;19920;-69
2022/08/16 03:25:04;;;;;;;;;;;19.80;99.90;;;;;;8401137;28;19924;-69
2022/08/16 03:29:07;;;;;;;;;;;19.70;99.90;;;;;;8410486;28;19920;-69
2022/08/16 03:33:09;;;;;;;;;;;19.70;99.90;;;;;;8403257;27;20383;-69
2022/08/16 03:37:11;;;;;;;;;;;19.70;99.90;;;;;;8380191;28;20327;-69
2022/08/16 03:41:13;;;;;;;;;;;19.70;99.90;;;;;;8381613;28;20169;-69
2022/08/16 03:45:26;;;;;;;;;;;19.60;99.90;;;;;;8389024;28;19982;-69
2022/08/16 03:49:27;;;;;;;;;;;19.70;99.90;;;;;;8380823;28;19931;-69
2022/08/16 03:53:37;;;;;;;;;;;19.60;99.90;;;;;;8383357;28;19924;-69
2022/08/16 03:57:39;;;;;;;;;;;19.60;99.90;;;;;;8380300;28;19920;-69
2022/08/16 04:01:41;;;;;;;;;;;19.60;99.90;;;;;;8376107;28;19927;-69
2022/08/16 04:05:46;;;;;;;;;;;19.50;99.90;;;;;;8384245;28;19939;-69
2022/08/16 04:09:48;;;;;;;;;;;19.50;99.90;;;;;;8380996;28;20393;-69
2022/08/16 04:13:49;;;;;;;;;;;19.40;99.90;;;;;;8381344;28;19958;-69
2022/08/16 04:18:02;;;;;;;;;;;19.40;99.90;;;;;;8390304;28;19921;-69
2022/08/16 04:22:04;;;;;;;;;;;19.40;99.90;;;;;;8395699;28;19947;-69
2022/08/16 04:26:09;;;;;;;;;;;19.30;99.90;;;;;;8409499;28;19920;-69
2022/08/16 04:30:18;;;;;;;;;;;19.30;99.90;;;;;;8405711;28;19920;-69
2022/08/16 04:34:34;;;;;;;;;;;19.20;99.90;;;;;;8393805;28;20385;-69
2022/08/16 04:38:36;;;;;;;;;;;19.20;99.90;;;;;;8414256;28;19920;-69
2022/08/16 04:42:40;;;;;;;;;;;19.20;99.90;;;;;;8409222;28;19920;-69
2022/08/16 04:46:42;;;;;;;;;;;19.10;99.90;;;;;;8414216;28;19931;-69
2022/08/16 04:51:02;;;;;;;;;;;19.10;99.90;;;;;;8413380;28;19989;-69
2022/08/16 04:55:10;;;;;;;;;;;19.10;99.90;;;;;;8411716;28;20354;-69
2022/08/16 04:59:12;;;;;;;;;;;19.10;99.90;;;;;;8409857;28;20026;-69
2022/08/16 05:03:13;;;;;;;;;;;19.10;99.90;;;;;;8420384;28;20355;-69
2022/08/16 05:07:15;;;;;;;;;;;19.10;99.90;;;;;;8405728;28;20325;-69
2022/08/16 05:11:21;;;;;;;;;;;19.10;99.90;;;;;;8400495;28;19920;-69
2022/08/16 05:15:23;;;;;;;;;;;19.10;99.90;;;;;;8412642;28;20287;-69
2022/08/16 05:19:25;;;;;;;;;;;19.10;99.90;;;;;;8407776;28;19962;-69
2022/08/16 05:23:26;;;;;;;;;;;19.20;99.90;;;;;;8408489;28;19920;-69
2022/08/16 05:27:32;;;;;;;;;;;19.20;99.90;;;;;;8414621;28;19928;-69
2022/08/16 05:31:33;;;;;;;;;;;19.30;99.90;;;;;;8406812;28;19920;-69
2022/08/16 05:35:35;;;;;;;;;;;19.30;99.90;;;;;;8401571;28;20375;-69
2022/08/16 05:39:37;;;;;;;;;;;19.40;99.90;;;;;;8413825;28;20372;-69
2022/08/16 05:43:41;;;;;;;;;;;19.50;99.90;;;;;;8412994;28;19920;-69
2022/08/16 05:47:44;;;;;;;;;;;19.50;99.90;;;;;;8400972;28;19933;-69
2022/08/16 05:51:46;;;;;;;;;;;19.50;99.90;;;;;;8392175;28;19924;-69
2022/08/16 05:55:48;;;;;;;;;;;19.60;99.90;;;;;;8383549;28;19921;-69
2022/08/16 05:59:49;;;;;;;;;;;19.60;99.90;;;;;;8375732;28;20379;-69
2022/08/16 06:04:00;;;;;;;;;;;19.70;99.90;;;;;;8380275;28;20019;-69
2022/08/16 06:08:02;;;;;;;;;;;19.80;99.90;;;;;;8385594;28;20395;-69
2022/08/16 06:12:04;;;;;;;;;;;19.90;99.90;;;;;;8389119;28;20264;-69
2022/08/16 06:16:05;;;;;;;;;;;20.00;99.90;;;;;;8388186;28;20394;-69
2022/08/16 06:20:08;;;;;;;;;;;20.10;99.90;;;;;;8386615;28;19921;-69
2022/08/16 06:24:09;;;;;;;;;;;20.20;99.90;;;;;;8387653;28;19921;-70
2022/08/16 06:28:31;;;;;;;;;;;20.30;99.90;;;;;;8378319;28;20006;-70
2022/08/16 06:32:35;;;;;;;;;;;20.40;99.90;;;;;;8387992;28;19935;-70
2022/08/16 06:36:43;;;;;;;;;;;20.50;99.90;;;;;;8387012;28;19920;-70
2022/08/16 06:40:45;;;;;;;;;;;20.60;99.90;;;;;;8390328;28;20372;-69
2022/08/16 06:44:49;;;;;;;;;;;20.70;99.90;;;;;;8392242;28;19955;-70
2022/08/16 06:48:51;;;;;;;;;;;20.80;99.90;;;;;;8392631;28;20305;-69
2022/08/16 06:52:53;;;;;;;;;;;20.90;99.90;;;;;;8393023;28;19924;-70
2022/08/16 06:56:59;;;;;;;;;;;20.90;99.90;;;;;;8394300;28;20363;-70
2022/08/16 07:01:01;;;;;;;;;;;21.00;99.90;;;;;;8390769;28;19928;-70
2022/08/16 07:05:03;;;;;;;;;;;21.10;99.90;;;;;;8392307;28;19967;-69
2022/08/16 07:09:15;;;;;;;;;;;21.20;99.90;;;;;;8397643;28;20057;-69
2022/08/16 07:13:17;;;;;;;;;;;21.30;99.90;;;;;;8394723;28;19924;-69
2022/08/16 07:17:38;;;;;;;;;;;21.40;99.90;;;;;;8390798;28;20035;-70
2022/08/16 07:21:40;;;;;;;;;;;21.40;99.90;;;;;;8389425;28;19927;-69
2022/08/16 07:25:47;;;;;;;;;;;21.50;99.90;;;;;;8393423;28;19924;-69
2022/08/16 07:29:48;;;;;;;;;;;21.50;99.90;;;;;;8392409;28;19924;-70
2022/08/16 07:33:50;;;;;;;;;;;21.50;99.90;;;;;;8388505;28;19923;-70
2022/08/16 07:37:55;;;;;;;;;;;21.60;99.90;;;;;;8389211;28;19928;-70
2022/08/16 07:41:57;;;;;;;;;;;21.70;99.90;;;;;;8391474;28;19935;-70
2022/08/16 07:45:59;;;;;;;;;;;21.70;99.90;;;;;;8391723;28;19920;-70
2022/08/16 07:50:02;;;;;;;;;;;21.80;99.90;;;;;;8388468;28;20351;-70
2022/08/16 07:54:07;;;;;;;;;;;21.90;99.90;;;;;;8372012;28;20389;-70
2022/08/16 07:58:10;;;;;;;;;;;21.90;99.90;;;;;;8390854;28;19920;-70
2022/08/16 08:02:18;;;;;;;;;;;22.00;99.90;;;;;;8392980;28;19920;-69
2022/08/16 08:06:22;;;;;;;;;;;22.10;99.90;;;;;;8394525;28;19974;-69
2022/08/16 08:10:25;;;;;;;;;;;22.10;99.90;;;;;;8389864;28;19947;-69
2022/08/16 08:14:31;;;;;;;;;;;22.20;99.90;;;;;;8393684;28;19921;-70
2022/08/16 08:18:32;;;;;;;;;;;22.30;99.90;;;;;;8389237;28;19930;-70
2022/08/16 08:22:35;;;;;;;;;;;22.40;99.90;;;;;;8392179;28;20233;-70
2022/08/16 08:26:37;;;;;;;;;;;22.50;99.90;;;;;;8391352;28;19935;-69
2022/08/16 08:30:39;;;;;;;;;;;22.50;99.90;;;;;;8381132;28;20470;-69
2022/08/16 08:34:57;;;;;;;;;;;22.60;99.90;;;;;;8390494;28;20267;-69
2022/08/16 08:39:04;;;;;;;;;;;22.70;99.90;;;;;;8388366;28;19955;-69
2022/08/16 08:43:13;;;;;;;;;;;22.90;99.90;;;;;;8388278;28;19921;-69
2022/08/16 08:47:19;;;;;;;;;;;22.90;99.90;;;;;;8389346;28;19924;-70
2022/08/16 08:51:22;;;;;;;;;;;23.00;99.90;;;;;;8388978;28;19942;-69
2022/08/16 08:55:25;;;;;;;;;;;23.00;99.90;;;;;;8389444;28;20371;-70
2022/08/16 08:59:26;;;;;;;;;;;23.10;99.90;;;;;;8390938;28;19928;-70
2022/08/16 09:03:28;;;;;;;;;;;23.20;99.90;;;;;;8397606;27;19920;-70
2022/08/16 09:07:29;;;;;;;;;;;23.20;99.90;;;;;;8387562;28;20305;-69
2022/08/16 09:11:33;;;;;;;;;;;23.40;99.90;;;;;;8387863;28;19920;-69
2022/08/16 09:15:39;;;;;;;;;;;23.50;99.90;;;;;;8388981;28;19924;-69
2022/08/16 09:19:41;;;;;;;;;;;23.50;99.90;;;;;;8389722;28;19924;-69
2022/08/16 09:23:43;;;;;;;;;;;23.60;99.90;;;;;;8389887;28;19924;-69
2022/08/16 09:27:47;;;;;;;;;;;23.70;99.90;;;;;;8386556;28;19924;-70
2022/08/16 09:31:58;;;;;;;;;;;23.80;99.90;;;;;;8390292;28;19920;-69
2022/08/16 09:36:00;;;;;;;;;;;23.80;99.90;;;;;;8402858;28;19928;-69
2022/08/16 09:40:03;;;;;;;;;;;23.90;99.90;;;;;;8390490;28;19932;-69
2022/08/16 09:44:05;;;;;;;;;;;24.00;99.90;;;;;;8389622;28;19935;-69
2022/08/16 09:48:27;;;;;;;;;;;24.10;99.90;;;;;;8387594;28;19960;-70
2022/08/16 09:52:45;;;;;;;;;;;24.20;99.90;;;;;;8386237;28;20730;-70
2022/08/16 09:56:48;;;;;;;;;;;24.30;99.90;;;;;;8386572;28;19959;-70
2022/08/16 10:00:54;;;;;;;;;;;24.30;99.90;;;;;;8386177;28;20303;-70
2022/08/16 10:04:56;;;;;;;;;;;24.40;99.90;;;;;;8387188;28;19935;-70
2022/08/16 10:08:58;;;;;;;;;;;24.40;99.90;;;;;;8384490;28;19928;-70
2022/08/16 10:13:13;;;;;;;;;;;24.50;99.90;;;;;;8391882;28;20298;-70
2022/08/16 10:17:17;;;;;;;;;;;24.50;99.90;;;;;;8395841;28;19932;-70
2022/08/16 10:21:19;;;;;;;;;;;24.60;99.90;;;;;;8394912;28;19928;-70
2022/08/16 10:25:20;;;;;;;;;;;24.70;99.90;;;;;;8392556;28;20272;-69
2022/08/16 10:29:42;;;;;;;;;;;24.80;99.90;;;;;;8389912;28;19924;-70
2022/08/16 10:34:02;;;;;;;;;;;24.80;99.90;;;;;;8393024;28;19920;-70
2022/08/16 10:38:03;;;;;;;;;;;25.00;99.90;;;;;;8392787;28;20307;-69
2022/08/16 10:42:07;;;;;;;;;;;25.00;99.90;;;;;;8393351;28;19928;-70
2022/08/16 10:46:11;;;;;;;;;;;25.00;99.90;;;;;;8391051;28;20375;-70
2022/08/16 10:50:32;;;;;;;;;;;25.10;99.90;;;;;;8391648;28;19963;-70
2022/08/16 10:54:34;;;;;;;;;;;25.10;99.90;;;;;;8394388;28;19932;-70
2022/08/16 10:58:57;;;;;;;;;;;25.20;99.90;;;;;;8394170;28;20396;-70
2022/08/16 11:03:20;;;;;;;;;;;25.20;99.90;;;;;;8389909;28;20244;-69
2022/08/16 11:07:43;;;;;;;;;;;25.20;99.90;;;;;;8371848;28;20398;-70
2022/08/16 11:11:46;;;;;;;;;;;25.10;99.90;;;;;;8390954;28;19928;-70
2022/08/16 11:16:08;;;;;;;;;;;25.10;99.90;;;;;;8390807;28;20466;-70
2022/08/16 11:20:27;;;;;;;;;;;25.20;99.90;;;;;;8386211;28;20287;-70
2022/08/16 11:24:48;;;;;;;;;;;25.30;99.90;;;;;;8384851;28;20392;-69
2022/08/16 11:29:10;;;;;;;;;;;25.40;99.90;;;;;;8394051;28;19963;-69
2022/08/16 11:33:14;;;;;;;;;;;25.50;99.90;;;;;;8392981;28;19974;-69
2022/08/16 11:37:16;;;;;;;;;;;25.60;99.90;;;;;;8391175;28;19928;-70
2022/08/16 11:41:28;;;;;;;;;;;25.60;99.90;;;;;;8404675;27;19932;-70
2022/08/16 11:45:33;;;;;;;;;;;25.90;99.90;;;;;;8393315;28;19928;-70
2022/08/16 11:49:35;;;;;;;;;;;26.00;99.90;;;;;;8391542;28;20417;-70
2022/08/16 11:53:37;;;;;;;;;;;26.10;99.90;;;;;;8392493;28;20319;-70
2022/08/16 11:57:39;;;;;;;;;;;26.20;99.90;;;;;;8369714;28;19927;-70
2022/08/16 12:01:42;;;;;;;;;;;26.20;99.90;;;;;;8389000;28;19982;-70
2022/08/16 12:05:45;;;;;;;;;;;26.20;99.90;;;;;;8390516;28;20265;-70
2022/08/16 12:09:47;;;;;;;;;;;26.30;99.90;;;;;;8389047;28;19920;-70
2022/08/16 12:13:48;;;;;;;;;;;26.30;99.90;;;;;;8392867;28;19920;-69
2022/08/16 12:17:50;;;;;;;;;;;26.40;99.90;;;;;;8389519;28;19921;-70
2022/08/16 12:21:52;;;;;;;;;;;26.50;99.90;;;;;;8388662;28;20387;-70
2022/08/16 12:25:59;;;;;;;;;;;26.50;99.90;;;;;;8390192;28;19928;-69
2022/08/16 12:30:01;;;;;;;;;;;26.60;99.90;;;;;;8388730;28;19928;-69
2022/08/16 12:34:06;;;;;;;;;;;26.50;99.90;;;;;;8389045;28;19927;-70
2022/08/16 12:38:08;;;;;;;;;;;26.50;99.90;;;;;;8390490;28;19925;-69
2022/08/16 12:42:33;;;;;;;;;;;26.40;99.90;;;;;;8388022;28;19978;-69
2022/08/16 12:46:36;;;;;;;;;;;26.30;99.90;;;;;;8390005;28;19932;-70
2022/08/16 12:50:38;;;;;;;;;;;26.30;99.90;;;;;;8388334;28;19932;-69
2022/08/16 12:54:39;;;;;;;;;;;26.30;99.90;;;;;;8389095;28;19924;-69
2022/08/16 12:58:41;;;;;;;;;;;26.30;99.90;;;;;;8388444;28;21138;-69
2022/08/16 13:02:48;;;;;;;;;;;26.30;99.90;;;;;;8388970;28;19924;-69
2022/08/16 13:06:50;;;;;;;;;;;26.30;99.90;;;;;;8404445;28;19924;-69
2022/08/16 13:10:53;;;;;;;;;;;26.40;99.90;;;;;;8391361;28;19928;-69
2022/08/16 13:14:55;;;;;;;;;;;26.50;99.90;;;;;;8391164;28;19924;-69
2022/08/16 13:18:57;;;;;;;;;;;26.50;99.90;;;;;;8398511;28;19919;-69
2022/08/16 13:23:00;;;;;;;;;;;26.50;99.90;;;;;;8409192;28;19928;-70
2022/08/16 13:27:02;;;;;;;;;;;26.60;99.90;;;;;;8406526;28;19924;-70
2022/08/16 13:31:04;;;;;;;;;;;26.80;99.90;;;;;;8405896;28;19921;-69
2022/08/16 13:35:06;;;;;;;;;;;27.00;99.90;;;;;;8408219;28;19933;-69
2022/08/16 13:39:08;;;;;;;;;;;27.10;99.90;;;;;;8407730;28;20284;-69
2022/08/16 13:43:10;;;;;;;;;;;27.20;99.90;;;;;;8408707;28;20359;-69
2022/08/16 13:47:12;;;;;;;;;;;27.30;99.90;;;;;;8407619;28;20361;-69
2022/08/16 13:51:15;;;;;;;;;;;27.30;99.90;;;;;;8409330;28;20275;-70
2022/08/16 13:55:18;;;;;;;;;;;27.30;99.90;;;;;;8414952;28;19926;-70
2022/08/16 13:59:20;;;;;;;;;;;27.20;99.90;;;;;;8408461;28;20430;-70
2022/08/16 14:03:22;;;;;;;;;;;27.20;99.90;;;;;;8427069;27;19927;-70
2022/08/16 14:07:24;;;;;;;;;;;27.20;99.90;;;;;;8412191;28;19954;-70
2022/08/16 14:11:26;;;;;;;;;;;27.10;99.90;;;;;;8411872;28;19934;-70
2022/08/16 14:15:27;;;;;;;;;;;27.00;99.90;;;;;;8411519;28;19951;-70
2022/08/16 14:19:29;;;;;;;;;;;26.90;99.90;;;;;;8409887;28;19931;-70
2022/08/16 14:23:31;;;;;;;;;;;26.90;99.90;;;;;;8412103;28;19920;-70
2022/08/16 14:27:33;;;;;;;;;;;27.00;99.90;;;;;;8413055;28;19928;-70
2022/08/16 14:31:35;;;;;;;;;;;27.00;99.90;;;;;;8409051;28;19927;-70
2022/08/16 14:35:40;;;;;;;;;;;27.00;99.90;;;;;;8409492;28;19952;-70
2022/08/16 14:39:49;;;;;;;;;;;27.00;99.90;;;;;;8412916;28;20320;-70
2022/08/16 14:43:51;;;;;;;;;;;26.90;99.90;;;;;;8409412;28;20321;-70
2022/08/16 14:47:53;;;;;;;;;;;26.90;99.90;;;;;;8411937;28;20291;-70
2022/08/16 14:51:59;;;;;;;;;;;26.90;99.90;;;;;;8408150;28;19928;-70
2022/08/16 14:56:01;;;;;;;;;;;27.00;99.90;;;;;;8404872;28;20315;-70
2022/08/16 15:00:04;;;;;;;;;;;27.00;99.90;;;;;;8409590;28;19927;-70
2022/08/16 15:04:07;;;;;;;;;;;27.10;99.90;;;;;;8410375;28;19955;-70
2022/08/16 15:08:10;;;;;;;;;;;27.10;99.90;;;;;;8399571;28;19927;-70
2022/08/16 15:12:14;;;;;;;;;;;27.10;99.90;;;;;;8405904;28;19928;-70
2022/08/16 15:16:27;;;;;;;;;;;27.10;99.90;;;;;;8411191;28;20284;-70
2022/08/16 15:20:32;;;;;;;;;;;27.20;99.90;;;;;;8411095;28;20286;-70
2022/08/16 15:24:34;;;;;;;;;;;27.30;99.90;;;;;;8409624;28;19932;-70
2022/08/16 15:28:38;;;;;;;;;;;27.40;99.90;;;;;;8411389;28;19968;-70
2022/08/16 15:32:41;;;;;;;;;;;27.50;99.90;;;;;;8409729;28;19919;-70
2022/08/16 15:36:43;;;;;;;;;;;27.50;99.90;;;;;;8404966;28;20279;-70
2022/08/16 15:40:44;;;;;;;;;;;27.50;99.90;;;;;;8411215;28;20302;-70
2022/08/16 15:44:57;;;;;;;;;;;27.50;99.90;;;;;;8408791;28;19931;-70
2022/08/16 15:49:00;;;;;;;;;;;27.40;99.90;;;;;;8406127;28;19920;-70
2022/08/16 15:53:05;;;;;;;;;;;27.40;99.90;;;;;;8396532;28;20544;-70
2022/08/16 15:57:07;;;;;;;;;;;27.30;99.90;;;;;;8407306;28;19927;-70
2022/08/16 16:01:12;;;;;;;;;;;27.30;99.90;;;;;;8394158;28;19982;-70
2022/08/16 16:05:15;;;;;;;;;;;27.30;99.90;;;;;;8423879;28;20359;-70
2022/08/16 16:09:18;;;;;;;;;;;27.30;99.90;;;;;;8386780;28;19928;-70
2022/08/16 16:13:19;;;;;;;;;;;27.30;99.90;;;;;;8386030;28;20363;-70
2022/08/16 16:17:21;;;;;;;;;;;27.30;99.90;;;;;;8386689;28;19920;-70
2022/08/16 16:21:24;;;;;;;;;;;27.50;99.90;;;;;;8390034;28;19931;-70
2022/08/16 16:25:26;;;;;;;;;;;27.70;99.90;;;;;;8387728;28;19924;-70
2022/08/16 16:29:28;;;;;;;;;;;28.20;99.90;;;;;;8388817;28;19928;-70
2022/08/16 16:33:32;;;;;;;;;;;28.60;99.90;;;;;;8389764;28;19943;-70
2022/08/16 16:37:34;;;;;;;;;;;29.10;99.90;;;;;;8390940;28;19920;-70
2022/08/16 16:41:37;;;;;;;;;;;29.60;99.90;;;;;;8378593;28;19935;-70
2022/08/16 16:45:39;;;;;;;;;;;30.10;99.90;;;;;;8379231;28;19932;-70
2022/08/16 16:49:41;;;;;;;;;;;30.40;99.90;;;;;;8386948;28;20064;-70
2022/08/16 16:53:46;;;;;;;;;;;30.50;99.90;;;;;;8385251;28;19920;-70
2022/08/16 17:02:11;;;;;;;;;;;30.40;99.90;;;;;;8381292;28;25138;-71
2022/08/16 17:06:32;;;;;;;;;;;30.30;99.90;;;;;;8383143;28;20043;-70
2022/08/16 17:10:35;;;;;;;;;;;30.00;99.90;;;;;;8385626;28;19920;-70
2022/08/16 17:14:47;;;;;;;;;;;29.70;99.90;;;;;;8382008;28;19928;-70
2022/08/16 17:18:48;;;;;;;;;;;29.50;99.90;;;;;;8373927;28;19928;-70
2022/08/16 17:23:10;;;;;;;;;;;29.20;99.90;;;;;;8388242;28;19924;-71
2022/08/16 17:27:13;;;;;;;;;;;28.90;99.90;;;;;;8382865;28;19965;-71
2022/08/16 17:31:18;;;;;;;;;;;28.70;99.90;;;;;;8369654;28;19953;-70
2022/08/16 17:35:23;;;;;;;;;;;28.40;99.90;;;;;;8384705;28;19923;-71
2022/08/16 17:39:24;;;;;;;;;;;28.20;99.90;;;;;;8383659;28;20242;-71
2022/08/16 17:43:31;;;;;;;;;;;28.10;99.90;;;;;;8387038;28;20179;-71
2022/08/16 17:47:35;;;;;;;;;;;27.90;99.90;;;;;;8382118;28;19924;-70
2022/08/16 17:51:37;;;;;;;;;;;27.70;99.90;;;;;;8377712;28;19928;-71
2022/08/16 17:55:40;;;;;;;;;;;27.60;99.90;;;;;;8382285;28;19921;-71
2022/08/16 17:59:42;;;;;;;;;;;27.50;99.90;;;;;;8379713;28;19946;-70
2022/08/16 18:03:44;;;;;;;;;;;27.40;99.90;;;;;;8376976;28;20425;-70
2022/08/16 18:08:06;;;;;;;;;;;27.30;99.90;;;;;;8380097;28;19934;-70
2022/08/16 18:12:15;;;;;;;;;;;27.20;99.90;;;;;;8381733;28;20378;-70
2022/08/16 18:16:24;;;;;;;;;;;27.20;99.90;;;;;;8384327;28;20306;-70
2022/08/16 18:24:48;;;;;;;;;;;27.00;99.90;;;;;;8392762;28;20371;-70
2022/08/16 18:28:49;;;;;;;;;;;27.00;99.90;;;;;;8371578;28;19924;-70
2022/08/16 18:32:52;;;;;;;;;;;26.80;99.90;;;;;;8391622;28;20267;-70
2022/08/16 18:36:53;;;;;;;;;;;26.80;99.90;;;;;;8398916;28;20366;-70
2022/08/16 18:40:55;;;;;;;;;;;26.80;99.90;;;;;;8400958;28;19928;-70
2022/08/16 18:44:56;;;;;;;;;;;26.70;99.90;;;;;;8392197;28;19931;-70
2022/08/16 18:48:58;;;;;;;;;;;26.60;99.90;;;;;;8408623;27;20376;-70
2022/08/16 18:53:01;;;;;;;;;;;26.60;99.90;;;;;;8395142;28;19924;-70
2022/08/16 18:57:03;;;;;;;;;;;26.50;99.90;;;;;;8395492;28;19920;-70
2022/08/16 19:01:08;;;;;;;;;;;26.40;99.90;;;;;;8396182;28;20285;-70
2022/08/16 19:05:12;;;;;;;;;;;26.40;99.90;;;;;;8392725;28;19979;-70
2022/08/16 19:09:14;;;;;;;;;;;26.30;99.90;;;;;;8394785;28;19935;-70
2022/08/16 19:13:17;;;;;;;;;;;26.30;99.90;;;;;;8405578;27;20283;-70
2022/08/16 19:17:18;;;;;;;;;;;26.20;99.90;;;;;;8394074;28;19928;-70
2022/08/16 19:21:20;;;;;;;;;;;26.20;99.90;;;;;;8393353;28;19927;-70
2022/08/16 19:25:23;;;;;;;;;;;26.10;99.90;;;;;;8398315;28;19920;-70
2022/08/16 19:29:44;;;;;;;;;;;26.10;99.90;;;;;;8393511;28;19920;-70
2022/08/16 19:33:47;;;;;;;;;;;26.00;99.90;;;;;;8389796;28;20646;-70
2022/08/16 19:37:55;;;;;;;;;;;26.00;99.90;;;;;;8391773;28;19928;-70
2022/08/16 19:41:57;;;;;;;;;;;26.00;99.90;;;;;;8392612;28;19924;-70
2022/08/16 19:45:58;;;;;;;;;;;25.90;99.90;;;;;;8388156;28;21701;-70
2022/08/16 19:50:00;;;;;;;;;;;25.90;99.90;;;;;;8389986;28;19920;-70
2022/08/16 19:54:02;;;;;;;;;;;25.90;99.90;;;;;;8392603;28;19920;-69
2022/08/16 19:58:04;;;;;;;;;;;25.80;99.90;;;;;;8390349;28;20010;-70
2022/08/16 20:02:07;;;;;;;;;;;25.80;99.90;;;;;;8391449;28;19927;-70
2022/08/16 20:06:10;;;;;;;;;;;25.70;99.90;;;;;;8383904;28;19939;-70
2022/08/16 20:10:13;;;;;;;;;;;25.60;99.90;;;;;;8407658;27;20269;-70
2022/08/16 20:14:15;;;;;;;;;;;25.50;99.90;;;;;;8387040;28;19920;-70
2022/08/16 20:18:24;;;;;;;;;;;25.40;99.90;;;;;;8386356;28;20128;-70
2022/08/16 20:22:28;;;;;;;;;;;25.30;99.90;;;;;;8391731;28;19920;-70
2022/08/16 20:26:50;;;;;;;;;;;25.30;99.90;;;;;;8388425;28;20026;-70
2022/08/16 20:30:52;;;;;;;;;;;25.20;99.90;;;;;;8390603;28;19929;-70
2022/08/16 20:34:54;;;;;;;;;;;25.20;99.90;;;;;;8383812;28;19924;-70
2022/08/16 20:38:58;;;;;;;;;;;25.10;99.90;;;;;;8389384;28;19931;-70
2022/08/16 20:43:01;;;;;;;;;;;25.00;99.90;;;;;;8387886;28;19928;-70
2022/08/16 20:47:03;;;;;;;;;;;24.90;99.90;;;;;;8382087;28;19920;-70
2022/08/16 20:51:09;;;;;;;;;;;24.90;99.90;;;;;;8384465;28;19924;-70
2022/08/16 20:55:10;;;;;;;;;;;24.80;99.90;;;;;;8387779;28;19924;-70
2022/08/16 20:59:12;;;;;;;;;;;24.80;99.90;;;;;;8404271;27;19931;-70
2022/08/16 21:03:14;;;;;;;;;;;24.80;99.90;;;;;;8409316;28;19920;-70
2022/08/16 21:07:18;;;;;;;;;;;24.70;99.90;;;;;;8428895;28;19930;-69
2022/08/16 21:11:20;;;;;;;;;;;24.70;99.90;;;;;;8424715;28;19930;-70
2022/08/16 21:15:23;;;;;;;;;;;24.60;99.90;;;;;;8436495;28;19926;-70
2022/08/16 21:19:26;;;;;;;;;;;24.60;99.90;;;;;;8430462;28;20298;-70
2022/08/16 21:23:27;;;;;;;;;;;24.50;99.90;;;;;;8436388;28;20371;-70
2022/08/16 21:27:29;;;;;;;;;;;24.50;99.90;;;;;;8431700;28;19935;-70
2022/08/16 21:31:31;;;;;;;;;;;24.50;99.90;;;;;;8420357;28;19920;-69
2022/08/16 21:35:33;;;;;;;;;;;24.40;99.90;;;;;;8409012;28;19920;-70
2022/08/16 21:39:34;;;;;;;;;;;24.40;99.90;;;;;;8398164;28;19920;-70
2022/08/16 21:43:36;;;;;;;;;;;24.40;99.90;;;;;;8405925;28;19970;-70
2022/08/16 21:47:38;;;;;;;;;;;24.40;99.90;;;;;;8404822;28;19920;-70
2022/08/16 21:51:39;;;;;;;;;;;24.40;99.90;;;;;;8439675;28;19924;-70
2022/08/16 21:55:42;;;;;;;;;;;24.40;99.90;;;;;;8442364;28;20021;-70
2022/08/16 21:59:44;;;;;;;;;;;24.40;99.90;;;;;;8424047;28;20394;-70
2022/08/16 22:03:45;;;;;;;;;;;24.30;99.90;;;;;;8413493;28;19928;-70
2022/08/16 22:07:47;;;;;;;;;;;24.30;99.90;;;;;;8434784;28;20026;-70
2022/08/16 22:11:49;;;;;;;;;;;24.30;99.90;;;;;;8450369;28;19920;-70
2022/08/16 22:15:51;;;;;;;;;;;24.20;99.90;;;;;;8433309;28;20284;-70
2022/08/16 22:19:53;;;;;;;;;;;24.20;99.90;;;;;;8433312;28;19927;-70
2022/08/16 22:23:55;;;;;;;;;;;24.20;99.90;;;;;;8431609;28;19919;-70
2022/08/16 22:27:59;;;;;;;;;;;24.20;99.90;;;;;;8430899;28;19957;-70
2022/08/16 22:32:03;;;;;;;;;;;24.20;99.90;;;;;;8438077;28;20346;-70
2022/08/16 22:36:05;;;;;;;;;;;24.20;99.90;;;;;;8425586;28;20272;-70
2022/08/16 22:40:07;;;;;;;;;;;24.20;99.90;;;;;;8433093;28;19998;-70
2022/08/16 22:44:10;;;;;;;;;;;24.20;99.90;;;;;;8417521;28;20329;-70
2022/08/16 22:48:12;;;;;;;;;;;24.20;99.90;;;;;;8435981;28;20023;-70
2022/08/16 22:52:14;;;;;;;;;;;24.10;99.90;;;;;;8448376;28;20378;-70
2022/08/16 22:56:16;;;;;;;;;;;24.10;99.90;;;;;;8424883;28;19920;-69
2022/08/16 23:00:19;;;;;;;;;;;24.10;99.90;;;;;;8448816;27;19931;-69
2022/08/16 23:04:21;;;;;;;;;;;24.00;99.90;;;;;;8428270;28;19920;-70
2022/08/16 23:08:26;;;;;;;;;;;24.00;99.90;;;;;;8390048;28;19927;-70
2022/08/16 23:12:52;;;;;;;;;;;24.00;99.90;;;;;;8443596;28;19919;-70
2022/08/16 23:16:54;;;;;;;;;;;24.00;99.90;;;;;;8404073;28;19919;-70
2022/08/16 23:20:58;;;;;;;;;;;23.90;99.90;;;;;;8398362;28;21283;-70
2022/08/16 23:25:00;;;;;;;;;;;23.90;99.90;;;;;;8427759;28;19932;-70
2022/08/16 23:29:03;;;;;;;;;;;23.90;99.90;;;;;;8424126;28;20387;-70
2022/08/16 23:33:08;;;;;;;;;;;23.90;99.90;;;;;;8404801;28;19978;-70
2022/08/16 23:37:09;;;;;;;;;;;23.80;99.90;;;;;;8405967;28;20245;-70
2022/08/16 23:41:11;;;;;;;;;;;23.80;99.90;;;;;;8416878;28;19943;-70
2022/08/16 23:45:13;;;;;;;;;;;23.80;99.90;;;;;;8437078;28;19933;-69
2022/08/16 23:49:14;;;;;;;;;;;23.80;99.90;;;;;;8439587;28;19924;-70
2022/08/16 23:53:41;;;;;;;;;;;23.70;99.90;;;;;;8419078;28;20349;-70